Time;durP1;ratioP1;P1;durP2;ratioP2;P2;SDS_P1;SDS_P2;PMS_P1;PMS_P2;Temp;Humidity;BMP_temperature;BMP_pressure;BME280_temperature;BME280_humidity;BME280_pressure;Samples;Min_cycle;Max_cycle;Signal;HPM_P1;HPM_P2
2021/09/08 00:00:21;;;;;;;;;56.25;46.00;30.60;26.40;;;;;;691558;28;5954;-76
2021/09/08 00:00:42;;;;;;;;;56.40;47.00;30.60;26.40;;;;;;688324;28;6600;-76
2021/09/08 00:01:04;;;;;;;;;56.00;46.20;30.60;26.40;;;;;;689037;28;6557;-76
2021/09/08 00:01:24;;;;;;;;;55.75;46.00;30.60;26.40;;;;;;689069;28;7469;-75
2021/09/08 00:01:45;;;;;;;;;59.25;48.50;30.60;26.40;;;;;;689771;28;6340;-76
2021/09/08 00:02:06;;;;;;;;;61.33;48.67;30.60;26.40;;;;;;691643;28;6111;-76
2021/09/08 00:02:26;;;;;;;;;57.00;46.00;30.60;26.30;;;;;;691831;28;6024;-76
2021/09/08 00:02:48;;;;;;;;;61.25;48.00;30.60;26.40;;;;;;692000;28;6051;-76
2021/09/08 00:03:08;;;;;;;;;60.40;47.20;30.60;26.40;;;;;;691961;28;6106;-77
2021/09/08 00:03:29;;;;;;;;;55.60;45.60;30.60;26.30;;;;;;691987;28;6181;-77
2021/09/08 00:03:50;;;;;;;;;58.00;46.50;30.60;26.30;;;;;;691865;28;6071;-75
2021/09/08 00:04:11;;;;;;;;;61.00;49.75;30.60;26.30;;;;;;691876;28;5961;-75
2021/09/08 00:04:31;;;;;;;;;58.20;48.00;30.60;26.40;;;;;;691728;28;6745;-77
2021/09/08 00:04:52;;;;;;;;;59.00;49.00;30.60;26.30;;;;;;691834;28;5953;-75
2021/09/08 00:05:13;;;;;;;;;57.00;47.00;30.60;26.30;;;;;;691530;28;6160;-78
2021/09/08 00:05:34;;;;;;;;;55.80;46.00;30.60;26.40;;;;;;691903;28;6047;-76
2021/09/08 00:05:55;;;;;;;;;56.75;45.75;30.60;26.30;;;;;;691832;28;6048;-77
2021/09/08 00:06:15;;;;;;;;;57.00;47.50;30.60;26.30;;;;;;691602;28;6064;-77
2021/09/08 00:06:36;;;;;;;;;58.40;46.20;30.60;26.30;;;;;;691955;28;6240;-77
2021/09/08 00:06:57;;;;;;;;;55.50;46.25;30.60;26.30;;;;;;692148;28;5928;-77
2021/09/08 00:07:17;;;;;;;;;60.40;47.60;30.60;26.30;;;;;;691857;28;6106;-77
2021/09/08 00:07:39;;;;;;;;;54.75;43.75;30.60;26.30;;;;;;691819;28;5943;-78
2021/09/08 00:08:00;;;;;;;;;57.25;46.25;30.60;26.30;;;;;;691820;28;6472;-78
2021/09/08 00:08:21;;;;;;;;;53.80;45.00;30.60;26.30;;;;;;691884;28;6023;-79
2021/09/08 00:08:42;;;;;;;;;52.80;44.20;30.60;26.30;;;;;;691772;28;6749;-77
2021/09/08 00:09:04;;;;;;;;;56.50;46.00;30.60;26.30;;;;;;692025;28;6038;-76
2021/09/08 00:09:25;;;;;;;;;56.60;45.80;30.60;26.30;;;;;;691918;28;6276;-77
2021/09/08 00:09:46;;;;;;;;;57.75;47.00;30.60;26.30;;;;;;691998;28;6205;-77
2021/09/08 00:10:08;;;;;;;;;55.00;45.00;30.60;26.30;;;;;;692125;28;6143;-77
2021/09/08 00:10:28;;;;;;;;;59.50;46.50;30.60;26.30;;;;;;691750;28;6445;-79
2021/09/08 00:10:49;;;;;;;;;56.50;46.25;30.60;26.40;;;;;;691779;28;5957;-78
2021/09/08 00:11:10;;;;;;;;;55.25;45.00;30.60;26.30;;;;;;691871;28;5947;-75
2021/09/08 00:11:30;;;;;;;;;56.50;45.50;30.60;26.30;;;;;;691841;28;6800;-76
2021/09/08 00:11:51;;;;;;;;;51.00;43.00;30.60;26.30;;;;;;691636;28;5952;-77
2021/09/08 00:12:12;;;;;;;;;52.25;43.00;30.60;26.30;;;;;;688953;28;6062;-77
2021/09/08 00:12:35;;;;;;;;;54.00;45.00;30.60;26.30;;;;;;689310;28;5958;-77
2021/09/08 00:12:56;;;;;;;;;55.60;44.60;30.60;26.30;;;;;;688805;28;6909;-76
2021/09/08 00:13:16;;;;;;;;;54.60;45.60;30.60;27.10;;;;;;688997;28;6151;-76
2021/09/08 00:13:37;;;;;;;;;53.50;44.00;30.60;27.10;;;;;;688997;28;5819;-76
2021/09/08 00:13:58;;;;;;;;;59.50;48.00;30.60;26.30;;;;;;689855;28;6763;-76
2021/09/08 00:14:19;;;;;;;;;53.50;44.50;30.60;26.30;;;;;;691753;28;6218;-77
2021/09/08 00:14:40;;;;;;;;;54.00;44.75;30.60;26.30;;;;;;691628;28;6015;-75
2021/09/08 00:15:02;;;;;;;;;55.00;45.50;30.60;26.20;;;;;;691767;28;8390;-76
2021/09/08 00:15:23;;;;;;;;;54.00;43.60;30.60;26.20;;;;;;691558;28;6452;-76
2021/09/08 00:15:44;;;;;;;;;55.50;46.00;30.60;26.30;;;;;;691378;28;6129;-76
2021/09/08 00:16:04;;;;;;;;;52.80;44.00;30.60;26.30;;;;;;691776;28;6170;-75
2021/09/08 00:16:25;;;;;;;;;54.50;44.00;30.60;26.30;;;;;;691700;28;6001;-76
2021/09/08 00:16:46;;;;;;;;;50.00;43.00;30.60;26.30;;;;;;691681;28;6029;-76
2021/09/08 00:17:07;;;;;;;;;50.00;42.00;30.60;26.30;;;;;;691846;28;6101;-75
2021/09/08 00:17:27;;;;;;;;;53.50;44.50;30.60;26.20;;;;;;692056;28;5938;-76
2021/09/08 00:17:48;;;;;;;;;52.25;44.00;30.60;26.20;;;;;;691955;28;5985;-76
2021/09/08 00:18:09;;;;;;;;;50.00;42.75;30.70;26.30;;;;;;691909;28;6031;-77
2021/09/08 00:18:30;;;;;;;;;56.60;46.00;30.60;26.20;;;;;;692002;28;6075;-76
2021/09/08 00:18:50;;;;;;;;;52.25;44.00;30.60;26.20;;;;;;691043;28;5954;-77
2021/09/08 00:19:11;;;;;;;;;53.20;44.60;30.60;26.20;;;;;;691780;28;6065;-77
2021/09/08 00:19:32;;;;;;;;;51.00;42.25;30.60;26.20;;;;;;691810;28;6086;-76
2021/09/08 00:19:53;;;;;;;;;51.80;43.60;30.60;26.20;;;;;;691762;28;6054;-77
2021/09/08 00:20:15;;;;;;;;;52.40;43.20;30.70;27.10;;;;;;691763;28;6031;-76
2021/09/08 00:20:36;;;;;;;;;51.80;42.20;30.60;26.20;;;;;;691406;28;6478;-76
2021/09/08 00:20:57;;;;;;;;;54.00;44.50;30.70;26.20;;;;;;691844;28;5933;-76
2021/09/08 00:21:17;;;;;;;;;52.00;43.00;30.60;26.20;;;;;;691670;28;6021;-76
2021/09/08 00:21:38;;;;;;;;;52.50;43.00;30.60;26.20;;;;;;691612;28;6052;-76
2021/09/08 00:21:59;;;;;;;;;48.75;40.75;30.70;26.40;;;;;;691787;28;6237;-77
2021/09/08 00:22:20;;;;;;;;;51.00;43.00;30.70;26.20;;;;;;691298;28;6358;-76
2021/09/08 00:22:42;;;;;;;;;48.00;40.00;30.60;26.20;;;;;;688947;28;6107;-76
2021/09/08 00:23:02;;;;;;;;;53.75;44.00;30.60;26.10;;;;;;689004;28;7511;-76
2021/09/08 00:23:23;;;;;;;;;52.00;44.00;30.60;26.10;;;;;;688941;28;5956;-76
2021/09/08 00:23:44;;;;;;;;;49.25;42.25;30.60;26.20;;;;;;688915;28;5975;-76
2021/09/08 00:24:05;;;;;;;;;52.00;43.00;30.60;26.20;;;;;;689401;28;6066;-76
2021/09/08 00:24:25;;;;;;;;;49.00;41.00;30.70;26.20;;;;;;688919;28;6212;-76
2021/09/08 00:24:46;;;;;;;;;49.67;41.67;30.60;26.20;;;;;;689002;28;5337;-77
2021/09/08 00:25:08;;;;;;;;;50.40;42.00;30.60;26.20;;;;;;689257;28;6122;-77
2021/09/08 00:25:29;;;;;;;;;50.00;42.00;30.70;27.10;;;;;;691486;28;6792;-77
2021/09/08 00:25:52;;;;;;;;;49.40;41.60;30.70;26.20;;;;;;691480;28;6039;-78
2021/09/08 00:26:12;;;;;;;;;49.40;42.00;30.70;26.20;;;;;;691532;28;6293;-76
2021/09/08 00:26:34;;;;;;;;;52.00;42.75;30.70;26.20;;;;;;691841;28;6770;-75
2021/09/08 00:26:56;;;;;;;;;52.40;43.60;30.70;26.20;;;;;;691478;28;6662;-76
2021/09/08 00:27:17;;;;;;;;;49.60;40.80;30.70;26.20;;;;;;691478;28;6312;-77
2021/09/08 00:27:38;;;;;;;;;51.50;42.75;30.70;26.20;;;;;;691776;28;6676;-76
2021/09/08 00:27:59;;;;;;;;;50.00;42.00;30.70;26.20;;;;;;691457;28;5941;-78
2021/09/08 00:28:20;;;;;;;;;52.50;42.50;30.60;26.20;;;;;;691743;28;6044;-77
2021/09/08 00:28:40;;;;;;;;;49.60;40.80;30.60;26.10;;;;;;691563;28;6258;-76
2021/09/08 00:29:01;;;;;;;;;49.00;41.25;30.70;26.20;;;;;;691861;28;5924;-78
2021/09/08 00:29:22;;;;;;;;;48.50;40.50;30.70;26.20;;;;;;691445;28;6221;-76
2021/09/08 00:29:43;;;;;;;;;49.00;41.50;30.70;26.20;;;;;;691589;28;6742;-77
2021/09/08 00:30:05;;;;;;;;;49.40;42.00;30.70;26.20;;;;;;691968;28;6386;-78
2021/09/08 00:30:26;;;;;;;;;52.50;43.00;30.70;26.20;;;;;;691909;28;6355;-77
2021/09/08 00:30:47;;;;;;;;;49.60;40.00;30.60;26.10;;;;;;691673;28;6986;-77
2021/09/08 00:31:08;;;;;;;;;48.60;41.00;30.70;26.20;;;;;;691820;28;6325;-77
2021/09/08 00:31:29;;;;;;;;;46.75;39.50;30.70;26.20;;;;;;691700;28;5944;-78
2021/09/08 00:31:50;;;;;;;;;49.50;41.50;30.60;26.10;;;;;;691741;28;5942;-77
2021/09/08 00:32:11;;;;;;;;;50.25;42.25;30.70;26.30;;;;;;691941;28;6025;-77
2021/09/08 00:32:31;;;;;;;;;50.25;42.00;30.70;26.20;;;;;;692024;28;6214;-76
2021/09/08 00:32:52;;;;;;;;;50.75;41.25;30.70;26.20;;;;;;691781;28;6124;-76
2021/09/08 00:33:13;;;;;;;;;48.50;40.50;30.70;26.10;;;;;;691997;28;5957;-76
2021/09/08 00:33:33;;;;;;;;;49.50;42.50;30.70;26.20;;;;;;691728;28;5959;-76
2021/09/08 00:33:54;;;;;;;;;49.00;41.50;30.70;26.10;;;;;;691522;28;6083;-76
2021/09/08 00:34:15;;;;;;;;;48.75;40.50;30.70;26.10;;;;;;691597;28;5960;-78
2021/09/08 00:34:35;;;;;;;;;51.67;41.67;30.70;26.20;;;;;;691702;28;6068;-77
2021/09/08 00:34:56;;;;;;;;;47.50;39.50;30.70;26.10;;;;;;691747;28;6825;-77
2021/09/08 00:35:17;;;;;;;;;48.50;40.50;30.70;26.20;;;;;;691891;28;6013;-76
2021/09/08 00:35:38;;;;;;;;;49.20;40.60;30.70;26.20;;;;;;691731;28;6212;-77
2021/09/08 00:35:58;;;;;;;;;42.75;37.25;30.60;26.10;;;;;;691943;28;6130;-77
2021/09/08 00:36:19;;;;;;;;;48.50;40.50;30.60;26.10;;;;;;691995;28;6081;-76
2021/09/08 00:36:40;;;;;;;;;49.50;41.00;30.60;26.10;;;;;;692004;28;5911;-78
2021/09/08 00:37:00;;;;;;;;;47.50;40.25;30.70;26.20;;;;;;691863;28;6090;-77
2021/09/08 00:37:21;;;;;;;;;45.00;39.00;30.70;26.20;;;;;;691903;28;6700;-77
2021/09/08 00:37:42;;;;;;;;;46.00;40.00;30.60;26.10;;;;;;691705;28;5762;-77
2021/09/08 00:38:03;;;;;;;;;47.00;40.00;30.70;26.20;;;;;;691949;28;6797;-77
2021/09/08 00:38:23;;;;;;;;;48.67;40.00;30.60;26.10;;;;;;691837;28;5969;-77
2021/09/08 00:38:44;;;;;;;;;48.67;40.67;30.70;26.20;;;;;;691571;28;6653;-77
2021/09/08 00:39:06;;;;;;;;;47.00;40.00;30.70;26.20;;;;;;691751;28;5944;-76
2021/09/08 00:39:27;;;;;;;;;52.25;42.00;30.70;26.10;;;;;;688995;28;6293;-76
2021/09/08 00:39:47;;;;;;;;;45.40;38.60;30.70;26.20;;;;;;688753;28;6221;-78
2021/09/08 00:40:10;;;;;;;;;49.60;42.00;30.70;26.10;;;;;;688958;28;6136;-75
2021/09/08 00:40:32;;;;;;;;;45.40;38.00;30.70;26.20;;;;;;689636;28;6365;-76
2021/09/08 00:40:57;;;;;;;;;48.00;41.00;30.70;26.10;;;;;;691644;28;6746;-76
2021/09/08 00:41:22;;;;;;;;;42.80;37.00;30.70;26.20;;;;;;692849;28;6614;-76
2021/09/08 00:41:43;;;;;;;;;46.60;40.20;30.70;26.10;;;;;;694200;28;6250;-75
2021/09/08 00:42:15;;;;;;;;;47.33;39.33;30.60;26.10;;;;;;691516;28;5963;-74
2021/09/08 00:42:36;;;;;;;;;46.75;39.00;30.70;26.10;;;;;;691644;28;6268;-76
2021/09/08 00:42:57;;;;;;;;;49.00;40.75;30.70;26.10;;;;;;691669;28;6103;-75
2021/09/08 00:43:18;;;;;;;;;45.00;38.20;30.70;26.20;;;;;;691789;28;6112;-76
2021/09/08 00:43:38;;;;;;;;;49.00;41.00;30.70;26.30;;;;;;691712;28;5978;-76
2021/09/08 00:44:09;;;;;;;;;48.00;40.25;30.70;26.30;;;;;;691822;28;6032;-74
2021/09/08 00:44:30;;;;;;;;;45.00;37.20;30.70;26.30;;;;;;691826;28;6276;-76
2021/09/08 00:44:51;;;;;;;;;43.00;36.50;30.70;26.30;;;;;;691784;28;5451;-75
2021/09/08 00:45:13;;;;;;;;;49.00;40.75;30.70;26.40;;;;;;691996;28;5945;-75
2021/09/08 00:45:33;;;;;;;;;47.00;38.00;30.70;26.40;;;;;;691457;28;8561;-74
2021/09/08 00:45:56;;;;;;;;;47.00;39.00;30.70;26.30;;;;;;691176;28;6077;-75
2021/09/08 00:46:16;;;;;;;;;45.20;38.60;30.70;26.30;;;;;;691379;28;6429;-74
2021/09/08 00:46:39;;;;;;;;;46.60;40.00;30.70;26.30;;;;;;691720;28;6026;-75
2021/09/08 00:47:00;;;;;;;;;46.60;39.00;30.70;26.20;;;;;;691521;28;6453;-75
2021/09/08 00:47:21;;;;;;;;;42.00;36.25;30.70;26.30;;;;;;691720;28;6046;-74
2021/09/08 00:47:42;;;;;;;;;42.00;36.00;30.70;26.30;;;;;;691361;28;6622;-74
2021/09/08 00:48:03;;;;;;;;;45.00;39.00;30.70;26.30;;;;;;691611;28;6100;-75
2021/09/08 00:48:23;;;;;;;;;46.40;39.40;30.70;26.30;;;;;;691323;28;6745;-75
2021/09/08 00:48:44;;;;;;;;;48.80;40.40;30.70;26.40;;;;;;691608;28;6022;-75
2021/09/08 00:49:06;;;;;;;;;46.33;38.33;30.70;27.10;;;;;;691669;28;5982;-75
2021/09/08 00:49:27;;;;;;;;;46.00;36.00;30.70;26.30;;;;;;690929;28;6504;-75
2021/09/08 00:49:48;;;;;;;;;41.00;36.00;30.80;26.20;;;;;;691643;28;6670;-76
2021/09/08 00:50:10;;;;;;;;;43.40;36.40;30.80;26.30;;;;;;691538;28;6279;-75
2021/09/08 00:50:31;;;;;;;;;44.60;36.00;30.70;26.20;;;;;;691415;28;6386;-75
2021/09/08 00:50:56;;;;;;;;;45.00;37.40;30.70;26.20;;;;;;691534;28;6774;-75
2021/09/08 00:51:18;;;;;;;;;39.20;33.00;30.70;26.30;;;;;;687864;28;6747;-75
2021/09/08 00:51:41;;;;;;;;;44.40;38.40;30.70;26.20;;;;;;690257;28;6327;-75
2021/09/08 00:52:09;;;;;;;;;43.40;37.00;30.80;26.40;;;;;;691576;28;6291;-75
2021/09/08 00:52:31;;;;;;;;;46.60;39.60;30.80;26.30;;;;;;688791;28;6359;-76
2021/09/08 00:52:53;;;;;;;;;47.25;40.25;30.80;26.20;;;;;;688949;28;6511;-75
2021/09/08 00:53:20;;;;;;;;;44.00;37.50;30.80;26.20;;;;;;691008;28;6412;-76
2021/09/08 00:53:43;;;;;;;;;42.20;36.20;30.80;26.30;;;;;;691456;28;6344;-77
2021/09/08 00:54:23;;;;;;;;;43.60;36.00;30.80;26.40;;;;;;691444;28;6781;-78
2021/09/08 00:54:48;;;;;;;;;41.50;35.25;30.80;26.30;;;;;;691636;28;6469;-77
2021/09/08 00:55:11;;;;;;;;;45.75;36.50;30.80;26.30;;;;;;691585;28;6531;-78
2021/09/08 00:55:32;;;;;;;;;46.25;38.00;30.80;26.30;;;;;;691841;28;6398;-78
2021/09/08 00:55:54;;;;;;;;;43.75;37.00;30.80;26.30;;;;;;691385;28;6190;-75
2021/09/08 00:56:16;;;;;;;;;45.00;38.00;30.80;26.30;;;;;;691446;28;6662;-75
2021/09/08 00:56:37;;;;;;;;;47.20;39.80;30.80;26.20;;;;;;691507;28;6595;-75
2021/09/08 00:56:58;;;;;;;;;44.20;37.40;30.80;26.40;;;;;;691656;28;6070;-76
2021/09/08 00:57:20;;;;;;;;;37.00;34.00;30.80;26.20;;;;;;691454;28;6234;-76
2021/09/08 00:57:43;;;;;;;;;45.50;38.50;30.80;26.20;;;;;;691625;28;6472;-76
2021/09/08 00:58:04;;;;;;;;;44.40;37.00;30.90;26.20;;;;;;691627;28;7459;-75
2021/09/08 00:58:24;;;;;;;;;39.00;35.00;30.80;26.10;;;;;;691741;28;6074;-76
2021/09/08 00:58:45;;;;;;;;;40.25;35.00;30.80;26.20;;;;;;691646;28;6544;-76
2021/09/08 00:59:06;;;;;;;;;41.00;36.00;30.80;26.10;;;;;;691799;28;6056;-76
2021/09/08 00:59:27;;;;;;;;;47.75;40.25;31.80;26.70;;;;;;691966;28;6120;-76
2021/09/08 00:59:50;;;;;;;;;43.50;36.50;30.80;26.20;;;;;;691773;28;6083;-77
2021/09/08 01:00:11;;;;;;;;;37.80;34.40;30.80;26.20;;;;;;691326;28;6471;-75
2021/09/08 01:00:32;;;;;;;;;38.60;34.00;30.90;26.20;;;;;;691901;28;6366;-76
2021/09/08 01:00:52;;;;;;;;;45.80;36.40;30.80;26.00;;;;;;691726;28;6135;-76
2021/09/08 01:01:13;;;;;;;;;44.50;38.25;30.80;25.90;;;;;;694341;28;6684;-76
2021/09/08 01:01:34;;;;;;;;;37.00;32.25;30.90;26.20;;;;;;694412;28;6066;-75
2021/09/08 01:01:55;;;;;;;;;42.75;35.00;30.90;26.20;;;;;;693952;28;5995;-75
2021/09/08 01:02:16;;;;;;;;;44.00;35.50;30.80;26.00;;;;;;691421;28;6084;-76
2021/09/08 01:02:40;;;;;;;;;44.50;37.50;30.80;26.10;;;;;;690889;28;5999;-76
2021/09/08 01:03:00;;;;;;;;;48.75;40.00;30.80;26.20;;;;;;691540;28;6695;-77
2021/09/08 01:03:21;;;;;;;;;42.25;35.50;30.80;26.20;;;;;;691466;28;6058;-78
2021/09/08 01:03:42;;;;;;;;;41.25;34.75;30.80;26.20;;;;;;689040;28;5972;-78
2021/09/08 01:04:02;;;;;;;;;41.25;35.25;30.90;26.10;;;;;;689511;28;6075;-76
2021/09/08 01:04:25;;;;;;;;;44.25;37.75;30.80;26.10;;;;;;691448;28;6064;-77
2021/09/08 01:04:45;;;;;;;;;41.00;35.00;30.80;26.10;;;;;;691483;28;6461;-79
2021/09/08 01:05:07;;;;;;;;;44.25;37.25;30.80;26.40;;;;;;691420;28;6256;-79
2021/09/08 01:05:28;;;;;;;;;42.40;35.80;30.80;26.50;;;;;;691396;28;7006;-78
2021/09/08 01:05:49;;;;;;;;;45.00;38.00;30.80;26.50;;;;;;691715;28;6687;-79
2021/09/08 01:06:09;;;;;;;;;38.60;35.00;30.70;26.40;;;;;;691384;28;6083;-80
2021/09/08 01:06:30;;;;;;;;;40.25;35.25;30.70;26.50;;;;;;691749;28;6156;-79
2021/09/08 01:06:51;;;;;;;;;46.20;38.00;30.70;26.60;;;;;;691584;28;6314;-78
2021/09/08 01:07:12;;;;;;;;;43.50;37.00;30.70;26.50;;;;;;691513;28;6779;-76
2021/09/08 01:07:35;;;;;;;;;44.40;38.00;30.80;26.60;;;;;;691758;28;7530;-75
2021/09/08 01:07:56;;;;;;;;;39.40;34.40;30.70;26.60;;;;;;691450;28;6270;-76
2021/09/08 01:08:17;;;;;;;;;42.80;36.00;30.70;26.70;;;;;;691099;28;7631;-76
2021/09/08 01:08:38;;;;;;;;;44.20;36.00;30.70;26.80;;;;;;691775;28;6174;-77
2021/09/08 01:09:00;;;;;;;;;39.60;35.00;30.70;26.70;;;;;;691858;28;6079;-77
2021/09/08 01:09:21;;;;;;;;;49.25;39.25;30.70;26.80;;;;;;691444;28;6504;-76
2021/09/08 01:09:42;;;;;;;;;40.25;35.25;30.70;27.60;;;;;;691769;28;6048;-76
2021/09/08 01:10:05;;;;;;;;;41.00;33.50;30.70;26.80;;;;;;691792;28;6421;-76
2021/09/08 01:10:29;;;;;;;;;41.25;33.75;30.70;26.60;;;;;;691662;28;6122;-76
2021/09/08 01:10:50;;;;;;;;;45.25;37.00;30.70;26.60;;;;;;691545;28;6445;-76
2021/09/08 01:11:12;;;;;;;;;44.60;37.60;30.70;26.50;;;;;;691773;28;6145;-76
2021/09/08 01:11:34;;;;;;;;;41.50;35.00;30.70;26.50;;;;;;691674;28;5947;-76
2021/09/08 01:11:56;;;;;;;;;38.80;34.60;30.70;26.50;;;;;;691612;28;6328;-77
2021/09/08 01:12:17;;;;;;;;;37.00;33.50;30.70;26.40;;;;;;691626;28;6832;-76
2021/09/08 01:12:37;;;;;;;;;38.00;34.80;30.70;26.40;;;;;;691731;28;6625;-76
2021/09/08 01:12:58;;;;;;;;;39.80;35.00;30.80;26.50;;;;;;691424;28;6092;-77
2021/09/08 01:13:19;;;;;;;;;44.00;37.00;30.80;26.30;;;;;;691564;28;5994;-76
2021/09/08 01:13:40;;;;;;;;;46.00;38.40;30.70;26.30;;;;;;691440;28;6503;-76
2021/09/08 01:14:01;;;;;;;;;46.25;39.00;30.70;26.30;;;;;;691762;28;5927;-77
2021/09/08 01:14:23;;;;;;;;;44.80;38.60;30.80;26.40;;;;;;691525;28;6055;-75
2021/09/08 01:14:44;;;;;;;;;47.00;40.60;30.80;26.50;;;;;;691348;28;7063;-76
2021/09/08 01:15:05;;;;;;;;;42.80;37.20;30.80;26.50;;;;;;691758;28;6119;-75
2021/09/08 01:15:26;;;;;;;;;40.50;34.50;30.80;26.40;;;;;;691776;28;6049;-75
2021/09/08 01:16:01;;;;;;;;;45.40;36.40;30.80;26.20;;;;;;691738;28;6889;-75
2021/09/08 01:16:22;;;;;;;;;45.00;38.00;30.80;26.20;;;;;;691650;28;6288;-78
2021/09/08 01:16:52;;;;;;;;;46.00;38.25;30.80;26.20;;;;;;691906;28;6836;-76
2021/09/08 01:17:14;;;;;;;;;44.00;38.00;30.80;26.30;;;;;;691556;28;6776;-76
2021/09/08 01:17:35;;;;;;;;;45.00;38.60;30.80;26.10;;;;;;691521;28;6202;-76
2021/09/08 01:17:55;;;;;;;;;46.25;39.00;30.80;26.30;;;;;;691591;28;6927;-76
2021/09/08 01:18:16;;;;;;;;;44.00;36.50;30.80;26.40;;;;;;688769;28;6738;-76
2021/09/08 01:18:37;;;;;;;;;44.00;38.00;30.80;26.20;;;;;;688742;28;5616;-76
2021/09/08 01:18:57;;;;;;;;;44.50;38.00;30.80;26.30;;;;;;688904;28;5983;-76
2021/09/08 01:19:18;;;;;;;;;42.75;36.50;30.80;26.30;;;;;;688583;28;6044;-78
2021/09/08 01:19:39;;;;;;;;;36.20;33.00;30.80;26.40;;;;;;689059;28;6186;-76
2021/09/08 01:20:00;;;;;;;;;39.75;35.00;30.80;26.30;;;;;;691603;28;6376;-76
2021/09/08 01:20:21;;;;;;;;;46.80;39.40;30.80;26.20;;;;;;691748;28;6276;-76
2021/09/08 01:20:42;;;;;;;;;44.50;37.50;30.80;26.30;;;;;;691804;28;6766;-76
2021/09/08 01:21:04;;;;;;;;;43.80;36.40;30.80;26.20;;;;;;691746;28;6082;-76
2021/09/08 01:21:24;;;;;;;;;43.00;36.60;30.80;26.10;;;;;;690933;28;6363;-77
2021/09/08 01:21:46;;;;;;;;;41.25;35.25;30.80;26.20;;;;;;691405;28;6133;-75
2021/09/08 01:22:07;;;;;;;;;41.60;35.60;30.80;26.20;;;;;;691293;28;6261;-74
2021/09/08 01:22:30;;;;;;;;;45.00;38.00;30.80;26.10;;;;;;691633;28;5962;-76
2021/09/08 01:22:54;;;;;;;;;45.00;37.00;30.80;26.20;;;;;;691320;28;7606;-75
2021/09/08 01:23:15;;;;;;;;;40.00;34.50;30.70;26.30;;;;;;691420;28;6477;-75
2021/09/08 01:23:36;;;;;;;;;39.50;35.50;30.80;26.30;;;;;;691610;28;6273;-75
2021/09/08 01:24:04;;;;;;;;;41.75;35.75;30.70;26.30;;;;;;691771;28;7582;-75
2021/09/08 01:24:26;;;;;;;;;44.00;38.00;30.80;26.30;;;;;;691841;28;6287;-75
2021/09/08 01:24:46;;;;;;;;;44.80;38.20;30.70;26.10;;;;;;691770;28;6027;-76
2021/09/08 01:25:07;;;;;;;;;44.25;36.50;30.70;26.10;;;;;;691421;28;5938;-75
2021/09/08 01:25:28;;;;;;;;;35.00;32.00;30.70;26.10;;;;;;691602;28;6047;-76
2021/09/08 01:25:49;;;;;;;;;43.75;35.00;30.70;26.30;;;;;;691511;28;5403;-76
2021/09/08 01:26:10;;;;;;;;;45.75;39.25;30.70;26.30;;;;;;691331;28;6039;-77
2021/09/08 01:26:31;;;;;;;;;44.00;36.50;30.80;26.20;;;;;;691579;28;6068;-77
2021/09/08 01:26:53;;;;;;;;;46.80;36.00;30.80;26.20;;;;;;691388;28;6046;-76
2021/09/08 01:27:14;;;;;;;;;48.00;37.50;30.70;26.20;;;;;;691410;28;8427;-75
2021/09/08 01:27:34;;;;;;;;;40.60;36.00;30.70;26.30;;;;;;691381;28;6347;-76
2021/09/08 01:27:55;;;;;;;;;47.67;40.00;30.70;26.20;;;;;;691630;28;6036;-76
2021/09/08 01:28:16;;;;;;;;;45.00;39.00;30.70;26.20;;;;;;691305;28;6148;-76
2021/09/08 01:28:37;;;;;;;;;45.00;37.75;30.70;26.40;;;;;;691679;28;6076;-74
2021/09/08 01:28:58;;;;;;;;;44.00;35.80;30.70;26.30;;;;;;691705;28;6478;-77
2021/09/08 01:29:19;;;;;;;;;44.75;36.50;30.70;26.20;;;;;;691314;28;6039;-77
2021/09/08 01:29:41;;;;;;;;;45.60;38.20;30.70;26.20;;;;;;691732;28;6010;-77
2021/09/08 01:30:02;;;;;;;;;44.20;36.00;30.80;26.20;;;;;;691698;28;6400;-77
2021/09/08 01:30:25;;;;;;;;;35.50;31.50;30.70;26.10;;;;;;691289;28;6042;-77
2021/09/08 01:30:45;;;;;;;;;40.00;36.00;30.70;26.30;;;;;;691365;28;6430;-76
2021/09/08 01:31:07;;;;;;;;;37.00;33.75;30.70;26.30;;;;;;691479;28;5948;-78
2021/09/08 01:31:28;;;;;;;;;43.00;36.00;30.70;26.20;;;;;;688621;28;8768;-78
2021/09/08 01:31:57;;;;;;;;;41.20;35.40;30.70;26.30;;;;;;688639;28;6282;-77
2021/09/08 01:32:17;;;;;;;;;43.20;37.20;30.70;26.20;;;;;;690138;28;6434;-77
2021/09/08 01:32:39;;;;;;;;;42.00;35.50;30.70;26.50;;;;;;691589;28;5207;-77
2021/09/08 01:33:02;;;;;;;;;41.00;36.00;30.70;26.20;;;;;;691337;28;6538;-77
2021/09/08 01:33:23;;;;;;;;;41.25;35.00;30.80;26.20;;;;;;691544;28;6369;-77
2021/09/08 01:33:43;;;;;;;;;42.50;35.75;30.80;26.30;;;;;;691701;28;6289;-78
2021/09/08 01:34:05;;;;;;;;;40.00;35.00;30.70;26.40;;;;;;691558;28;5926;-78
2021/09/08 01:34:27;;;;;;;;;44.50;36.00;30.70;26.40;;;;;;691481;28;5434;-77
2021/09/08 01:34:51;;;;;;;;;36.60;33.00;30.80;26.40;;;;;;691284;28;6398;-77
2021/09/08 01:35:12;;;;;;;;;36.80;32.40;30.70;26.50;;;;;;691385;28;6714;-77
2021/09/08 01:35:33;;;;;;;;;36.40;32.20;30.70;26.10;;;;;;691611;28;6063;-77
2021/09/08 01:35:54;;;;;;;;;41.80;34.20;30.30;26.00;;;;;;691429;28;6149;-77
2021/09/08 01:36:15;;;;;;;;;43.40;37.00;30.70;26.60;;;;;;687219;28;6153;-77
2021/09/08 01:36:40;;;;;;;;;43.00;36.00;30.80;26.40;;;;;;688925;28;6039;-77
2021/09/08 01:37:00;;;;;;;;;41.25;36.00;30.70;27.20;;;;;;688735;28;7348;-77
2021/09/08 01:37:21;;;;;;;;;37.00;33.25;30.80;26.40;;;;;;688718;28;6264;-77
2021/09/08 01:37:42;;;;;;;;;35.80;33.00;30.70;26.30;;;;;;688691;28;6165;-77
2021/09/08 01:38:03;;;;;;;;;36.00;33.00;30.70;26.30;;;;;;689884;28;5979;-76
2021/09/08 01:38:25;;;;;;;;;39.00;35.00;30.70;26.30;;;;;;691525;28;6439;-77
2021/09/08 01:38:45;;;;;;;;;34.00;31.80;30.70;26.30;;;;;;691374;28;6068;-77
2021/09/08 01:39:07;;;;;;;;;36.60;33.40;30.70;26.50;;;;;;691434;28;6107;-77
2021/09/08 01:39:28;;;;;;;;;39.20;35.00;30.70;26.50;;;;;;691556;28;6446;-77
2021/09/08 01:39:49;;;;;;;;;34.50;32.25;30.70;26.30;;;;;;688627;28;6232;-77
2021/09/08 01:40:10;;;;;;;;;43.20;36.00;30.70;26.40;;;;;;688822;28;6164;-76
2021/09/08 01:40:31;;;;;;;;;41.40;35.00;30.70;26.10;;;;;;689662;28;5972;-77
2021/09/08 01:40:51;;;;;;;;;37.50;32.50;30.70;26.40;;;;;;691531;28;6050;-77
2021/09/08 01:41:12;;;;;;;;;42.33;36.67;30.70;26.30;;;;;;691546;28;6028;-77
2021/09/08 01:41:33;;;;;;;;;37.67;33.00;30.70;26.30;;;;;;691660;28;6278;-77
2021/09/08 01:41:54;;;;;;;;;38.20;34.60;30.70;26.50;;;;;;691749;28;6264;-77
2021/09/08 01:42:15;;;;;;;;;37.25;34.00;30.70;26.70;;;;;;691774;28;6689;-77
2021/09/08 01:42:35;;;;;;;;;38.50;34.00;30.70;26.50;;;;;;691722;28;6122;-77
2021/09/08 01:42:57;;;;;;;;;38.50;34.50;30.70;26.30;;;;;;691619;28;6226;-77
2021/09/08 01:43:25;;;;;;;;;42.00;35.40;30.70;26.20;;;;;;691488;28;6413;-78
2021/09/08 01:43:47;;;;;;;;;43.40;36.00;30.70;26.40;;;;;;691506;28;6852;-76
2021/09/08 01:44:08;;;;;;;;;36.80;33.00;30.70;26.50;;;;;;691236;28;6534;-77
2021/09/08 01:44:29;;;;;;;;;41.25;35.50;30.70;26.50;;;;;;691505;28;6596;-77
2021/09/08 01:44:50;;;;;;;;;38.00;33.00;30.70;26.40;;;;;;688493;28;6123;-77
2021/09/08 01:45:13;;;;;;;;;40.00;33.00;30.70;26.40;;;;;;688660;28;5993;-77
2021/09/08 01:45:37;;;;;;;;;42.00;36.00;30.70;26.30;;;;;;688696;28;6630;-77
2021/09/08 01:45:58;;;;;;;;;38.00;33.40;30.70;26.40;;;;;;690166;28;6319;-77
2021/09/08 01:46:20;;;;;;;;;39.50;32.25;30.70;26.40;;;;;;691422;28;6643;-77
2021/09/08 01:46:41;;;;;;;;;33.80;31.40;30.70;26.20;;;;;;691398;28;6646;-77
2021/09/08 01:47:02;;;;;;;;;35.00;32.40;30.70;26.20;;;;;;691636;28;6345;-76
2021/09/08 01:47:23;;;;;;;;;37.40;33.00;30.70;26.40;;;;;;691837;28;6142;-76
2021/09/08 01:47:45;;;;;;;;;38.00;34.00;30.70;26.40;;;;;;691397;28;5943;-77
2021/09/08 01:48:06;;;;;;;;;36.00;33.00;30.70;26.30;;;;;;691315;28;6346;-76
2021/09/08 01:48:26;;;;;;;;;37.60;34.60;30.70;26.30;;;;;;691672;28;6156;-77
2021/09/08 01:48:47;;;;;;;;;40.80;34.80;30.70;26.50;;;;;;691621;28;6061;-77
2021/09/08 01:49:08;;;;;;;;;39.00;34.00;30.70;26.40;;;;;;688467;28;6175;-77
2021/09/08 01:49:30;;;;;;;;;36.20;32.20;30.70;26.40;;;;;;689365;28;6095;-77
2021/09/08 01:49:51;;;;;;;;;38.40;34.20;30.70;27.40;;;;;;688774;28;6430;-77
2021/09/08 01:50:12;;;;;;;;;34.00;31.50;30.70;26.40;;;;;;688893;28;6733;-76
2021/09/08 01:50:34;;;;;;;;;34.00;31.25;30.70;26.40;;;;;;688790;28;6522;-77
2021/09/08 01:50:55;;;;;;;;;33.60;31.60;30.70;26.40;;;;;;689312;28;6592;-77
2021/09/08 01:51:16;;;;;;;;;34.40;31.40;30.70;26.30;;;;;;691268;28;6283;-76
2021/09/08 01:51:37;;;;;;;;;36.20;32.40;30.70;26.30;;;;;;689455;28;6689;-77
2021/09/08 01:51:58;;;;;;;;;37.00;33.00;30.70;26.50;;;;;;691415;28;6058;-78
2021/09/08 01:52:19;;;;;;;;;33.40;31.40;30.70;26.40;;;;;;691415;28;6813;-77